createdAt,value
2022-10-01T00:02:00.154Z,9.48
2022-10-01T00:04:28.387Z,9.36
2022-10-01T00:07:04.544Z,9.68
2022-10-01T00:09:34.503Z,9.37
2022-10-01T00:12:02.870Z,9.69
2022-10-01T00:14:30.599Z,9.98
2022-10-01T00:16:58.492Z,10.09
2022-10-01T00:19:26.322Z,9.94
2022-10-01T00:21:54.196Z,9.96
2022-10-01T00:24:23.791Z,10.05
2022-10-01T00:26:51.448Z,10.08
2022-10-01T00:29:19.244Z,9.76
2022-10-01T00:31:46.956Z,9.76
2022-10-01T00:34:15.012Z,10.07
2022-10-01T00:36:43.272Z,10.10
2022-10-01T00:39:11.716Z,9.78
2022-10-01T00:41:40.952Z,9.31
2022-10-01T00:44:32.300Z,9.56
2022-10-01T00:47:05.722Z,9.75
2022-10-01T00:49:37.745Z,10.00
2022-10-01T00:52:09.911Z,10.22
2022-10-01T00:54:44.452Z,10.30
2022-10-01T00:57:17.553Z,10.34
2022-10-01T00:59:49.562Z,10.31
2022-10-01T01:02:17.339Z,10.30
2022-10-01T01:04:45.332Z,10.40
2022-10-01T01:07:13.857Z,10.42
2022-10-01T01:09:46.445Z,10.36
2022-10-01T01:12:28.288Z,10.35
2022-10-01T01:15:15.056Z,10.54
2022-10-01T01:17:52.355Z,10.49
2022-10-01T01:20:37.721Z,10.58
2022-10-01T01:23:13.911Z,10.73
2022-10-01T01:25:49.065Z,10.56
2022-10-01T01:28:25.192Z,10.52
2022-10-01T01:30:59.340Z,10.63
2022-10-01T01:33:30.875Z,10.81
2022-10-01T01:36:04.484Z,10.86
2022-10-01T01:38:37.294Z,10.78
2022-10-01T01:41:09.350Z,10.85
2022-10-01T01:43:42.017Z,10.90
2022-10-01T01:46:11.979Z,10.71
2022-10-01T01:48:41.944Z,10.84
2022-10-01T01:51:15.783Z,10.65
2022-10-01T01:53:44.056Z,10.80
2022-10-01T01:56:11.864Z,10.85
2022-10-01T01:58:41.219Z,11.07
2022-10-01T02:01:09.859Z,10.83
2022-10-01T02:03:37.720Z,10.95
2022-10-01T02:06:16.834Z,11.01
2022-10-01T02:08:49.646Z,10.78
2022-10-01T02:11:24.885Z,10.74
2022-10-01T02:14:04.281Z,10.72
2022-10-01T02:16:39.670Z,10.91
2022-10-01T02:19:19.397Z,11.17
2022-10-01T02:21:57.086Z,10.85
2022-10-01T02:24:37.523Z,11.23
2022-10-01T02:27:12.349Z,11.07
2022-10-01T02:29:44.441Z,11.09
2022-10-01T02:32:13.408Z,10.99
2022-10-01T02:34:43.288Z,11.02
2022-10-01T02:37:12.667Z,11.37
2022-10-01T02:39:42.558Z,11.52
2022-10-01T02:42:14.151Z,11.58
2022-10-01T02:44:46.557Z,11.53
2022-10-01T02:47:19.487Z,11.65
2022-10-01T02:49:48.291Z,11.35
2022-10-01T02:52:27.136Z,11.66
2022-10-01T02:54:59.639Z,11.67
2022-10-01T02:57:27.816Z,11.79
2022-10-01T02:59:59.705Z,11.84
2022-10-01T03:02:28.727Z,11.83
2022-10-01T03:04:57.500Z,11.68
2022-10-01T03:07:28.949Z,11.73
2022-10-01T03:09:59.322Z,11.80
2022-10-01T03:12:27.579Z,11.81
2022-10-01T03:14:58.904Z,11.80
2022-10-01T03:17:29.184Z,11.93
2022-10-01T03:19:56.902Z,11.91
2022-10-01T03:22:24.953Z,11.82
2022-10-01T03:24:53.640Z,11.72
2022-10-01T03:27:22.587Z,11.54
2022-10-01T03:29:50.432Z,11.58
2022-10-01T03:32:20.254Z,11.75
2022-10-01T03:34:47.943Z,11.73
2022-10-01T03:37:15.712Z,11.76
2022-10-01T03:39:45.795Z,11.73
2022-10-01T03:42:13.469Z,11.71
2022-10-01T03:44:41.166Z,11.54
2022-10-01T03:47:09.696Z,11.52
2022-10-01T03:49:39.072Z,11.57
2022-10-01T03:52:07.563Z,11.67
2022-10-01T03:54:35.266Z,11.72
2022-10-01T03:57:02.967Z,11.82
2022-10-01T03:59:30.651Z,11.91
2022-10-01T04:01:58.465Z,11.91
2022-10-01T04:04:28.903Z,11.79
2022-10-01T04:06:57.943Z,11.85
2022-10-01T04:09:25.948Z,11.93
2022-10-01T04:11:53.645Z,11.89
2022-10-01T04:14:21.301Z,11.95
2022-10-01T04:16:50.605Z,11.96
2022-10-01T04:19:18.344Z,11.94
2022-10-01T04:21:46.147Z,11.83
2022-10-01T04:24:15.377Z,11.66
2022-10-01T04:26:45.496Z,11.64
2022-10-01T04:29:13.161Z,11.49
2022-10-01T04:31:40.922Z,11.24
2022-10-01T04:34:08.929Z,11.34
2022-10-01T04:36:36.600Z,11.06
2022-10-01T04:39:06.425Z,11.30
2022-10-01T04:41:35.713Z,11.37
2022-10-01T04:44:04.153Z,11.64
2022-10-01T04:46:32.141Z,11.77
2022-10-01T04:49:02.129Z,11.57
2022-10-01T04:51:29.820Z,11.55
2022-10-01T04:53:57.712Z,11.54
2022-10-01T04:56:25.436Z,11.46
2022-10-01T04:58:54.480Z,11.47
2022-10-01T05:01:22.262Z,11.41
2022-10-01T05:03:50.084Z,11.50
2022-10-01T05:06:17.816Z,11.44
2022-10-01T05:08:45.471Z,11.50
2022-10-01T05:11:13.144Z,11.58
2022-10-01T05:13:41.602Z,11.38
2022-10-01T05:16:11.725Z,11.56
2022-10-01T05:18:40.525Z,11.47
2022-10-01T05:21:11.735Z,11.74
2022-10-01T05:23:39.789Z,11.63
2022-10-01T05:26:10.444Z,11.81
2022-10-01T05:28:43.208Z,11.87
2022-10-01T05:31:13.230Z,11.68
2022-10-01T05:33:41.955Z,11.66
2022-10-01T05:36:11.969Z,11.60
2022-10-01T05:38:39.671Z,11.56
2022-10-01T05:41:07.522Z,11.83
2022-10-01T05:43:36.348Z,11.89
2022-10-01T05:46:06.775Z,12.10
2022-10-01T05:48:36.798Z,12.09
2022-10-01T05:51:08.333Z,12.14
2022-10-01T05:53:38.041Z,12.12
2022-10-01T05:56:06.527Z,12.06
2022-10-01T05:58:34.931Z,11.89
2022-10-01T06:01:04.028Z,11.92
2022-10-01T06:03:31.939Z,11.89
2022-10-01T06:06:01.388Z,12.11
2022-10-01T06:08:29.101Z,12.01
2022-10-01T06:11:00.759Z,11.62
2022-10-01T06:13:29.219Z,11.66
2022-10-01T06:15:57.461Z,11.49
2022-10-01T06:18:25.158Z,11.29
2022-10-01T06:20:52.839Z,11.66
2022-10-01T06:23:21.836Z,11.27
2022-10-01T06:25:49.785Z,11.39
2022-10-01T06:28:19.912Z,11.60
2022-10-01T06:30:47.681Z,11.61
2022-10-01T06:33:18.011Z,11.48
2022-10-01T06:35:47.736Z,11.35
2022-10-01T06:38:16.564Z,11.48
2022-10-01T06:40:45.736Z,11.35
2022-10-01T06:43:13.678Z,11.32
2022-10-01T06:45:42.436Z,11.66
2022-10-01T06:48:14.030Z,11.64
2022-10-01T06:50:43.200Z,11.54
2022-10-01T06:53:10.194Z,11.67
2022-10-01T06:55:38.771Z,11.85
2022-10-01T06:58:09.657Z,12.00
2022-10-01T07:00:39.039Z,12.27
2022-10-01T07:03:10.687Z,11.99
2022-10-01T07:05:38.786Z,11.86
2022-10-01T07:08:07.836Z,12.01
2022-10-01T07:10:36.427Z,12.06
2022-10-01T07:13:10.249Z,12.16
2022-10-01T07:15:38.280Z,12.16
2022-10-01T07:18:08.577Z,12.26
2022-10-01T07:20:39.546Z,12.43
2022-10-01T07:23:08.781Z,12.41
2022-10-01T07:25:38.596Z,12.25
2022-10-01T07:28:15.947Z,12.26
2022-10-01T07:30:44.003Z,12.32
2022-10-01T07:33:11.970Z,12.51
2022-10-01T07:35:39.681Z,12.67
2022-10-01T07:38:08.063Z,12.56
2022-10-01T07:40:35.906Z,12.55
2022-10-01T07:43:03.591Z,12.25
2022-10-01T07:45:35.275Z,12.37
2022-10-01T07:48:04.394Z,12.38
2022-10-01T07:50:32.165Z,11.97
2022-10-01T07:53:00.839Z,12.41
2022-10-01T07:55:32.703Z,12.27
2022-10-01T07:58:01.426Z,12.35
2022-10-01T08:00:31.115Z,12.50
2022-10-01T08:03:00.201Z,12.46
2022-10-01T08:05:32.343Z,12.59
2022-10-01T08:08:01.443Z,12.61
2022-10-01T08:10:30.525Z,12.60
2022-10-01T08:13:01.909Z,12.19
2022-10-01T08:15:29.856Z,12.20
2022-10-01T08:17:57.580Z,12.34
2022-10-01T08:20:26.647Z,12.62
2022-10-01T08:22:54.448Z,12.06
2022-10-01T08:25:22.094Z,12.51
2022-10-01T08:27:49.860Z,12.52
2022-10-01T08:30:19.684Z,12.74
2022-10-01T08:32:47.572Z,12.88
2022-10-01T08:35:18.090Z,12.78
2022-10-01T08:37:47.114Z,12.64
2022-10-01T08:40:15.317Z,12.87
2022-10-01T08:42:52.470Z,12.56
2022-10-01T08:45:26.500Z,12.81
2022-10-01T08:48:02.949Z,12.82
2022-10-01T08:50:41.045Z,12.88
2022-10-01T08:53:15.523Z,12.88
2022-10-01T08:55:44.826Z,12.98
2022-10-01T08:58:19.779Z,12.72
2022-10-01T09:00:50.971Z,12.80
2022-10-01T09:03:19.632Z,12.94
2022-10-01T09:05:58.190Z,13.07
2022-10-01T09:08:46.148Z,12.89
2022-10-01T09:11:21.969Z,12.99
2022-10-01T09:14:06.733Z,13.11
2022-10-01T09:16:43.580Z,13.18
2022-10-01T09:19:26.540Z,13.10
2022-10-01T09:21:58.198Z,12.86
2022-10-01T09:24:42.164Z,13.07
2022-10-01T09:27:14.808Z,12.77
2022-10-01T09:29:48.624Z,13.06
2022-10-01T09:32:20.886Z,12.97
2022-10-01T09:34:48.998Z,12.86
2022-10-01T09:37:26.795Z,12.99
2022-10-01T09:40:05.666Z,12.84
2022-10-01T09:42:33.981Z,13.09
2022-10-01T09:45:01.708Z,13.10
2022-10-01T09:47:29.567Z,13.09
2022-10-01T09:50:01.158Z,12.83
2022-10-01T09:52:34.505Z,12.98
2022-10-01T09:55:10.474Z,13.13
2022-10-01T09:57:43.164Z,12.91
2022-10-01T10:00:18.352Z,13.01
2022-10-01T10:02:50.015Z,13.05
2022-10-01T10:05:20.753Z,13.43
2022-10-01T10:07:52.667Z,13.28
2022-10-01T10:10:26.067Z,13.48
2022-10-01T10:13:00.061Z,13.19
2022-10-01T10:15:31.243Z,13.57
2022-10-01T10:18:07.790Z,13.72
2022-10-01T10:20:40.305Z,13.57
2022-10-01T10:23:10.187Z,13.40
2022-10-01T10:25:39.288Z,13.51
2022-10-01T10:28:20.347Z,13.25
2022-10-01T10:30:48.939Z,13.16
2022-10-01T10:33:18.153Z,13.10
2022-10-01T10:35:45.992Z,13.15
2022-10-01T10:38:18.895Z,13.50
2022-10-01T10:40:51.093Z,13.10
2022-10-01T10:43:22.683Z,13.11
2022-10-01T10:45:56.198Z,13.19
2022-10-01T10:48:28.946Z,13.10
2022-10-01T10:51:00.971Z,13.20
2022-10-01T10:53:33.527Z,13.07
2022-10-01T10:56:05.799Z,13.14
2022-10-01T10:58:37.926Z,13.05
2022-10-01T11:01:09.104Z,13.14
2022-10-01T11:03:42.486Z,13.19
2022-10-01T11:06:13.024Z,13.20
2022-10-01T11:08:45.727Z,13.44
2022-10-01T11:11:32.285Z,13.47
2022-10-01T11:14:13.181Z,13.32
2022-10-01T11:16:54.073Z,13.59
2022-10-01T11:19:39.924Z,13.84
2022-10-01T11:22:20.888Z,13.67
2022-10-01T11:25:10.453Z,13.71
2022-10-01T11:27:49.464Z,13.58
2022-10-01T11:30:24.794Z,13.63
2022-10-01T11:33:03.438Z,13.84
2022-10-01T11:35:50.148Z,13.60
2022-10-01T11:38:37.749Z,13.62
2022-10-01T11:41:16.031Z,13.76
2022-10-01T11:43:50.596Z,13.56
2022-10-01T11:46:28.393Z,13.54
2022-10-01T11:49:02.675Z,13.85
2022-10-01T11:51:35.634Z,14.00
2022-10-01T11:54:08.317Z,13.92
2022-10-01T11:56:58.856Z,13.74
2022-10-01T11:59:36.915Z,14.02
2022-10-01T12:02:15.769Z,13.69
2022-10-01T12:04:49.629Z,13.93
2022-10-01T12:07:23.304Z,13.81
2022-10-01T12:10:00.879Z,13.70
2022-10-01T12:12:34.445Z,13.56
2022-10-01T12:15:10.886Z,13.74
2022-10-01T12:17:45.300Z,13.94
2022-10-01T12:20:24.126Z,14.15
2022-10-01T12:22:56.261Z,14.19
2022-10-01T12:25:30.786Z,14.48
2022-10-01T12:28:07.518Z,14.19
2022-10-01T12:30:43.728Z,14.31
2022-10-01T12:33:32.114Z,14.30
2022-10-01T12:36:10.963Z,14.49
2022-10-01T12:38:52.029Z,14.62
2022-10-01T12:41:32.278Z,14.48
2022-10-01T12:44:28.431Z,14.64
2022-10-01T12:47:11.268Z,14.56
2022-10-01T12:49:44.807Z,14.54
2022-10-01T12:52:21.145Z,14.93
2022-10-01T12:55:07.007Z,14.99
2022-10-01T12:57:45.765Z,14.68
2022-10-01T13:00:18.955Z,15.20
2022-10-01T13:03:18.862Z,15.26
2022-10-01T13:06:01.305Z,15.60
2022-10-01T13:08:47.808Z,15.68
2022-10-01T13:11:28.145Z,15.72
2022-10-01T13:13:57.407Z,15.51
2022-10-01T13:16:33.689Z,15.44
2022-10-01T13:19:08.144Z,15.22
2022-10-01T13:21:52.691Z,15.52
2022-10-01T13:24:29.264Z,15.40
2022-10-01T13:27:03.395Z,15.68
2022-10-01T13:29:44.931Z,15.63
2022-10-01T13:32:32.200Z,15.69
2022-10-01T13:35:03.666Z,15.57
2022-10-01T13:37:38.203Z,15.99
2022-10-01T13:40:22.988Z,16.44
2022-10-01T13:42:52.847Z,16.10
2022-10-01T13:45:29.064Z,16.20
2022-10-01T13:48:16.813Z,16.41
2022-10-01T13:50:58.972Z,16.39
2022-10-01T13:53:29.727Z,16.53
2022-10-01T13:55:58.725Z,16.40
2022-10-01T13:58:35.556Z,16.50
2022-10-01T14:01:06.021Z,16.21
2022-10-01T14:03:43.769Z,16.05
2022-10-01T14:06:19.366Z,16.18
2022-10-01T14:08:52.461Z,16.28
2022-10-01T14:11:44.286Z,16.11
2022-10-01T14:14:32.752Z,16.25
2022-10-01T14:17:03.348Z,16.21
2022-10-01T14:19:32.129Z,16.33
2022-10-01T14:22:43.797Z,16.73
2022-10-01T14:25:39.507Z,16.66
2022-10-01T14:28:28.151Z,16.41
2022-10-01T14:31:06.825Z,16.57
2022-10-01T14:34:00.223Z,16.75
2022-10-01T14:36:34.936Z,16.78
2022-10-01T14:39:14.914Z,17.07
2022-10-01T14:41:44.524Z,16.47
2022-10-01T14:44:25.572Z,16.63
2022-10-01T14:46:54.892Z,16.42
2022-10-01T14:49:25.940Z,16.65
2022-10-01T14:51:59.687Z,16.77
2022-10-01T14:54:28.406Z,17.16
2022-10-01T14:57:00.281Z,16.63
2022-10-01T14:59:36.015Z,16.81
2022-10-01T15:02:18.486Z,16.75
2022-10-01T15:04:47.860Z,16.55
2022-10-01T15:07:17.186Z,16.38
2022-10-01T15:09:45.282Z,16.42
2022-10-01T15:12:18.823Z,16.19
2022-10-01T15:14:47.961Z,16.32
2022-10-01T15:17:22.287Z,16.48
2022-10-01T15:19:52.794Z,16.46
2022-10-01T15:22:25.120Z,16.00
2022-10-01T15:24:56.945Z,16.07
2022-10-01T15:27:26.700Z,16.04
2022-10-01T15:29:58.643Z,16.19
2022-10-01T15:32:29.514Z,16.25
2022-10-01T15:34:59.080Z,16.29
2022-10-01T15:37:32.084Z,16.07
2022-10-01T15:40:01.664Z,16.28
2022-10-01T15:42:35.239Z,15.96
2022-10-01T15:45:23.268Z,16.50
2022-10-01T15:47:52.201Z,16.20
2022-10-01T15:50:22.282Z,16.19
2022-10-01T15:52:57.851Z,15.99
2022-10-01T15:55:31.661Z,15.94
2022-10-01T15:58:06.874Z,15.97
2022-10-01T16:00:43.501Z,15.88
2022-10-01T16:03:23.225Z,15.91
2022-10-01T16:05:56.024Z,16.01
2022-10-01T16:08:32.795Z,15.92
2022-10-01T16:11:20.909Z,15.74
2022-10-01T16:13:52.878Z,16.16
2022-10-01T16:16:26.971Z,16.12
2022-10-01T16:18:59.286Z,16.15
2022-10-01T16:21:39.023Z,15.94
2022-10-01T16:24:28.397Z,16.20
2022-10-01T16:27:00.245Z,16.20
2022-10-01T16:29:29.813Z,16.02
2022-10-01T16:31:57.751Z,15.66
2022-10-01T16:34:27.481Z,15.57
2022-10-01T16:36:55.193Z,15.78
2022-10-01T16:39:25.239Z,15.46
2022-10-01T16:42:19.164Z,15.76
2022-10-01T16:44:44.136Z,15.87
2022-10-01T16:47:13.229Z,15.77
2022-10-01T16:49:43.357Z,15.81
2022-10-01T16:52:14.208Z,15.78
2022-10-01T16:54:42.015Z,15.71
2022-10-01T16:57:11.190Z,15.71
2022-10-01T16:59:39.199Z,15.55
2022-10-01T17:02:12.673Z,15.50
2022-10-01T17:04:40.965Z,15.76
2022-10-01T17:07:08.761Z,15.65
2022-10-01T17:09:38.517Z,15.77
2022-10-01T17:12:06.211Z,15.64
2022-10-01T17:14:33.882Z,15.53
2022-10-01T17:17:01.582Z,15.35
2022-10-01T17:19:30.626Z,15.44
2022-10-01T17:21:58.303Z,15.57
2022-10-01T17:24:26.180Z,15.65
2022-10-01T17:26:54.442Z,15.44
2022-10-01T17:29:22.110Z,15.45
2022-10-01T17:31:53.249Z,15.57
2022-10-01T17:34:21.983Z,15.43
2022-10-01T17:36:51.704Z,15.50
2022-10-01T17:39:19.352Z,15.50
2022-10-01T17:41:47.127Z,15.38
2022-10-01T17:44:14.967Z,15.49
2022-10-01T17:46:42.965Z,15.22
2022-10-01T17:49:10.649Z,15.53
2022-10-01T17:51:38.536Z,15.31
2022-10-01T17:54:10.118Z,15.35
2022-10-01T17:56:38.762Z,15.10
2022-10-01T17:59:06.513Z,15.03
2022-10-01T18:01:34.308Z,15.10
2022-10-01T18:04:03.894Z,14.88
2022-10-01T18:06:31.690Z,15.04
2022-10-01T18:09:00.353Z,15.09
2022-10-01T18:11:29.987Z,15.14
2022-10-01T18:13:57.775Z,14.95
2022-10-01T18:16:26.337Z,15.02
2022-10-01T18:21:46.874Z,14.89
2022-10-01T18:24:17.414Z,14.93
2022-10-01T18:26:46.984Z,15.23
2022-10-01T18:29:19.102Z,15.20
2022-10-01T18:31:47.204Z,15.59
2022-10-01T18:34:23.473Z,15.68
2022-10-01T18:36:56.889Z,15.33
2022-10-01T18:39:32.636Z,15.43
2022-10-01T18:42:04.621Z,15.03
2022-10-01T18:44:32.321Z,15.24
2022-10-01T18:47:14.772Z,15.40
2022-10-01T18:50:19.073Z,15.27
2022-10-01T18:53:00.175Z,15.10
2022-10-01T18:55:40.249Z,14.76
2022-10-01T18:58:26.564Z,14.91
2022-10-01T19:01:02.878Z,14.77
2022-10-01T19:04:00.494Z,14.85
2022-10-01T19:06:52.855Z,14.57
2022-10-01T19:09:30.870Z,14.49
2022-10-01T19:12:10.747Z,14.73
2022-10-01T19:14:52.095Z,14.60
2022-10-01T19:17:45.671Z,14.64
2022-10-01T19:20:26.493Z,14.57
2022-10-01T19:23:16.206Z,14.70
2022-10-01T19:25:51.143Z,14.55
2022-10-01T19:28:35.469Z,14.78
2022-10-01T19:31:13.897Z,14.71
2022-10-01T19:33:47.697Z,14.42
2022-10-01T19:36:24.430Z,14.70
2022-10-01T19:38:54.364Z,14.52
2022-10-01T19:41:38.732Z,14.36
2022-10-01T19:44:14.756Z,14.78
2022-10-01T19:46:47.296Z,14.61
2022-10-01T19:49:21.742Z,14.60
2022-10-01T19:51:56.981Z,14.48
2022-10-01T19:54:30.251Z,14.72
2022-10-01T19:57:04.294Z,14.79
2022-10-01T19:59:32.042Z,14.68
2022-10-01T20:02:06.224Z,14.59
2022-10-01T20:04:39.075Z,14.73
2022-10-01T20:07:12.596Z,14.87
2022-10-01T20:09:45.626Z,15.17
2022-10-01T20:12:24.305Z,15.37
2022-10-01T20:15:09.670Z,15.14
2022-10-01T20:17:51.273Z,15.21
2022-10-01T20:20:24.734Z,15.23
2022-10-01T20:23:08.135Z,15.15
2022-10-01T20:25:44.849Z,15.23
2022-10-01T20:28:20.757Z,15.42
2022-10-01T20:30:59.560Z,15.37
2022-10-01T20:33:42.944Z,15.36
2022-10-01T20:36:18.635Z,15.40
2022-10-01T20:38:54.986Z,15.49
2022-10-01T20:41:24.415Z,15.49
2022-10-01T20:43:56.664Z,15.12
2022-10-01T20:46:32.234Z,15.24
2022-10-01T20:49:04.057Z,15.15
2022-10-01T20:51:36.902Z,15.13
2022-10-01T20:54:11.141Z,14.89
2022-10-01T20:56:42.687Z,15.01
2022-10-01T20:59:17.891Z,14.61
2022-10-01T21:01:54.159Z,14.87
2022-10-01T21:04:29.346Z,14.89
2022-10-01T21:07:02.536Z,14.71
2022-10-01T21:09:33.810Z,14.97
2022-10-01T21:12:06.023Z,15.16
2022-10-01T21:14:37.174Z,15.19
2022-10-01T21:17:27.424Z,15.19
2022-10-01T21:20:12.613Z,15.39
2022-10-01T21:22:57.487Z,15.37
2022-10-01T21:25:33.524Z,15.25
2022-10-01T21:28:16.061Z,15.25
2022-10-01T21:30:58.385Z,15.23
2022-10-01T21:33:31.603Z,15.23
2022-10-01T21:36:13.862Z,15.32
2022-10-01T21:38:49.034Z,15.31
2022-10-01T21:41:36.461Z,15.21
2022-10-01T21:44:24.602Z,15.22
2022-10-01T21:47:00.258Z,15.02
2022-10-01T21:49:42.226Z,14.85
2022-10-01T21:52:25.068Z,14.89
2022-10-01T21:55:20.693Z,15.22
2022-10-01T21:58:03.102Z,15.20
2022-10-01T22:00:32.580Z,14.89
2022-10-01T22:03:19.021Z,14.92
2022-10-01T22:05:53.569Z,14.87
2022-10-01T22:08:37.035Z,14.88
2022-10-01T22:11:10.690Z,14.85
2022-10-01T22:13:43.288Z,14.94
2022-10-01T22:16:15.053Z,14.51
2022-10-01T22:18:47.283Z,14.53
2022-10-01T22:21:25.722Z,14.83
2022-10-01T22:24:02.477Z,14.49
2022-10-01T22:26:35.179Z,14.97
2022-10-01T22:29:08.161Z,14.96
2022-10-01T22:31:40.545Z,15.10
2022-10-01T22:34:15.615Z,14.93
2022-10-01T22:36:49.980Z,15.05
2022-10-01T22:39:23.474Z,15.27
2022-10-01T22:41:56.019Z,15.36
2022-10-01T22:44:24.394Z,15.40
2022-10-01T22:47:10.715Z,15.40
2022-10-01T22:49:50.434Z,15.34
2022-10-01T22:52:27.443Z,15.33
2022-10-01T22:55:08.477Z,15.07
2022-10-01T22:57:51.656Z,15.19
2022-10-01T23:00:21.219Z,15.08
2022-10-01T23:03:03.194Z,15.22
2022-10-01T23:05:50.532Z,15.23
2022-10-01T23:08:26.729Z,15.17
2022-10-01T23:11:07.339Z,15.09
2022-10-01T23:13:43.032Z,15.20
2022-10-01T23:16:21.443Z,15.23
2022-10-01T23:18:59.170Z,15.21
2022-10-01T23:21:36.044Z,15.23
2022-10-01T23:24:15.548Z,15.23
2022-10-01T23:26:58.208Z,15.23
2022-10-01T23:29:50.257Z,15.22
2022-10-01T23:32:36.535Z,15.20
2022-10-01T23:35:14.472Z,15.20
2022-10-01T23:38:05.433Z,15.20
2022-10-01T23:40:38.034Z,15.23
2022-10-01T23:43:12.559Z,15.25
2022-10-01T23:45:48.471Z,15.25
2022-10-01T23:48:22.347Z,15.23
2022-10-01T23:50:55.531Z,15.25
2022-10-01T23:53:28.854Z,15.12
2022-10-01T23:56:21.140Z,15.09
2022-10-01T23:58:55.404Z,14.86
